Aviation Digital Data Service (ADDS)

Output produced by TAFs form (1707 UTC 29 May 2017)
found at http://www.aviationweather.gov/adds/tafs/
 
Forecast for: RJOO (OSAKA INTL/ITAMI, JP)
Text: TAF RJOO 291105Z 2912/3018 26007KT CAVOK
Forecast period: 1200 UTC 29 May 2017 to 0000 UTC 30 May 2017
Forecast type: FROM: standard forecast or significant change
Winds: from the W (260 degrees) at 8 MPH (7 knots; 3.6 m/s)
Visibility: 6 or more miles (10+ km)
Clouds: not forecast
Weather: NSW  (no significant weather)
Text: BECMG 3000/3003 22008KT
Forecast period: 0000 to 0900 UTC 30 May 2017
Forecast type: BECOMING: Conditions expected to become as follows by 0300 UTC 30 May 2017
Winds: from the SW (220 degrees) at 9 MPH (8 knots; 4.2 m/s)
Visibility: 6 or more miles (10+ km)
Weather: NSW  (no significant weather)
Text: BECMG 3009/3012 32005KT
Forecast period: 0900 to 1800 UTC 30 May 2017
Forecast type: BECOMING: Conditions expected to become as follows by 1200 UTC 30 May 2017
Winds: from the NW (320 degrees) at 6 MPH (5 knots; 2.6 m/s)
Visibility: 6 or more miles (10+ km)
Weather: NSW  (no significant weather)